Time;durP1;ratioP1;P1;durP2;ratioP2;P2;SDS_P1;SDS_P2;PMS_P1;PMS_P2;Temp;Humidity;BMP_temperature;BMP_pressure;BME280_temperature;BME280_humidity;BME280_pressure;Samples;Min_cycle;Max_cycle;Signal;HPM_P1;HPM_P2
2023/06/17 00:00:20;;;;;;;16.50;11.35;;;16.20;99.90;;;;;;5000981;28;20777;-75
2023/06/17 00:02:46;;;;;;;18.10;11.70;;;16.10;99.90;;;;;;4993771;28;20839;-75
2023/06/17 00:05:12;;;;;;;13.93;10.70;;;16.10;99.90;;;;;;5005597;28;21160;-75
2023/06/17 00:07:39;;;;;;;16.47;11.40;;;16.10;99.90;;;;;;4989973;28;20429;-75
2023/06/17 00:10:06;;;;;;;14.35;10.60;;;16.10;99.90;;;;;;4970035;28;20438;-76
2023/06/17 00:12:32;;;;;;;16.85;11.63;;;16.10;99.90;;;;;;4991416;28;20424;-75
2023/06/17 00:15:01;;;;;;;16.15;11.45;;;16.10;99.90;;;;;;4966450;28;20416;-76
2023/06/17 00:17:32;;;;;;;16.35;11.07;;;16.00;99.90;;;;;;4979455;28;20446;-76
2023/06/17 00:20:01;;;;;;;14.27;11.40;;;15.90;99.90;;;;;;4972141;28;20742;-75
2023/06/17 00:22:29;;;;;;;11.55;10.27;;;15.90;99.90;;;;;;4983696;28;20442;-76
2023/06/17 00:24:56;;;;;;;13.70;10.90;;;15.90;99.90;;;;;;4984685;28;20414;-75
2023/06/17 00:27:22;;;;;;;13.25;11.15;;;15.90;99.90;;;;;;4986445;28;20430;-76
2023/06/17 00:29:47;;;;;;;11.88;10.63;;;15.90;99.90;;;;;;4985171;28;20503;-78
2023/06/17 00:32:13;;;;;;;14.85;11.15;;;15.90;99.90;;;;;;4977790;28;20968;-75
2023/06/17 00:34:39;;;;;;;31.40;11.93;;;15.90;99.90;;;;;;4984728;28;20927;-75
2023/06/17 00:37:05;;;;;;;13.15;11.85;;;16.00;99.90;;;;;;4984311;28;20515;-75
2023/06/17 00:39:31;;;;;;;11.82;10.38;;;15.80;99.90;;;;;;4983718;28;20433;-75
2023/06/17 00:41:57;;;;;;;11.55;10.23;;;15.90;99.90;;;;;;5002738;28;20468;-76
2023/06/17 00:44:23;;;;;;;11.32;9.70;;;16.00;99.90;;;;;;4999537;28;20470;-76
2023/06/17 00:46:50;;;;;;;12.07;10.75;;;16.00;99.90;;;;;;4986287;28;20562;-78
2023/06/17 00:49:17;;;;;;;14.10;11.85;;;16.00;99.90;;;;;;4981533;28;20427;-76
2023/06/17 00:51:44;;;;;;;12.65;10.88;;;15.90;99.90;;;;;;4981728;28;20438;-77
2023/06/17 00:54:15;;;;;;;11.77;10.68;;;15.90;99.90;;;;;;4998539;28;20917;-76
2023/06/17 00:56:42;;;;;;;13.95;11.38;;;15.90;99.90;;;;;;4982819;28;20884;-75
2023/06/17 00:59:08;;;;;;;15.95;11.43;;;16.00;99.90;;;;;;4983002;28;20427;-76
2023/06/17 01:01:37;;;;;;;14.50;11.90;;;16.00;99.90;;;;;;4983465;28;20426;-76
2023/06/17 01:04:04;;;;;;;19.60;12.87;;;16.20;99.90;;;;;;5042072;23;21471;-75
2023/06/17 01:06:50;;;;;;;15.32;12.30;;;16.20;99.90;;;;;;4963841;28;20417;-76
2023/06/17 01:09:22;;;;;;;16.48;12.45;;;16.20;99.90;;;;;;4955166;28;20499;-76
2023/06/17 01:11:51;;;;;;;14.93;12.40;;;16.20;99.90;;;;;;4963978;28;20428;-75
2023/06/17 01:14:18;;;;;;;26.02;13.10;;;16.30;99.90;;;;;;4963638;28;20435;-77
2023/06/17 01:16:44;;;;;;;15.47;13.73;;;16.20;99.90;;;;;;4964700;28;20825;-75
2023/06/17 01:19:18;;;;;;;14.27;12.98;;;16.00;99.90;;;;;;4962465;28;20428;-75
2023/06/17 01:21:51;;;;;;;15.18;13.07;;;16.00;99.90;;;;;;4959292;28;20459;-76
2023/06/17 01:24:28;;;;;;;13.63;12.32;;;16.10;99.90;;;;;;4963921;28;20424;-76
2023/06/17 01:27:03;;;;;;;15.00;13.60;;;16.10;99.90;;;;;;4963181;28;20440;-76
2023/06/17 01:29:30;;;;;;;17.30;13.47;;;16.10;99.90;;;;;;4966120;28;21325;-76
2023/06/17 01:31:57;;;;;;;19.42;14.38;;;16.30;99.90;;;;;;4964353;28;20472;-75
2023/06/17 01:34:34;;;;;;;19.48;15.02;;;16.40;99.90;;;;;;4967103;28;20471;-76
2023/06/17 01:37:07;;;;;;;19.75;13.75;;;16.40;99.90;;;;;;4959108;28;20446;-76
2023/06/17 01:39:36;;;;;;;24.45;14.65;;;16.40;99.90;;;;;;4955611;28;20432;-74
2023/06/17 01:42:04;;;;;;;16.67;14.07;;;16.40;99.90;;;;;;4967349;28;20442;-75
2023/06/17 01:44:31;;;;;;;20.17;14.97;;;16.40;99.90;;;;;;4967017;28;20428;-75
2023/06/17 01:46:57;;;;;;;21.52;15.52;;;16.50;99.90;;;;;;4965186;28;20436;-75
2023/06/17 01:49:23;;;;;;;16.80;14.90;;;16.50;99.90;;;;;;4963063;28;20436;-76
2023/06/17 01:51:48;;;;;;;24.03;16.03;;;16.40;99.90;;;;;;4967397;28;20428;-75
2023/06/17 01:54:14;;;;;;;17.75;14.45;;;16.40;99.90;;;;;;4966724;28;20446;-75
2023/06/17 01:56:40;;;;;;;21.80;18.05;;;16.40;99.90;;;;;;4966674;28;20444;-76
2023/06/17 01:59:05;;;;;;;20.40;16.67;;;16.30;99.90;;;;;;4964514;28;20507;-75
2023/06/17 02:01:31;;;;;;;21.17;17.47;;;16.30;99.90;;;;;;4967249;28;20443;-73
2023/06/17 02:03:57;;;;;;;21.73;18.33;;;16.40;99.90;;;;;;4964694;28;20428;-75
2023/06/17 02:06:23;;;;;;;27.15;18.85;;;16.30;99.90;;;;;;4965871;28;20444;-76
2023/06/17 02:08:49;;;;;;;25.30;19.27;;;16.20;99.90;;;;;;4966955;28;20902;-76
2023/06/17 02:11:14;;;;;;;23.08;18.27;;;16.20;99.90;;;;;;4966524;28;20433;-76
2023/06/17 02:13:40;;;;;;;24.45;19.92;;;16.30;99.90;;;;;;4966698;28;20436;-75
2023/06/17 02:16:06;;;;;;;24.00;19.93;;;16.20;99.90;;;;;;4966873;28;20925;-76
2023/06/17 02:18:34;;;;;;;25.23;19.47;;;16.30;99.90;;;;;;4963736;28;20430;-76
2023/06/17 02:21:01;;;;;;;22.98;19.92;;;16.10;99.90;;;;;;4966832;28;20993;-74
2023/06/17 02:23:27;;;;;;;24.43;19.83;;;16.30;99.90;;;;;;4966614;28;20515;-75
2023/06/17 02:25:54;;;;;;;24.90;21.23;;;16.20;99.90;;;;;;4962571;28;20856;-74
2023/06/17 02:28:20;;;;;;;24.10;20.90;;;16.20;99.90;;;;;;4962034;28;20501;-74
2023/06/17 02:30:46;;;;;;;25.30;22.00;;;16.10;99.90;;;;;;4951657;28;20513;-75
2023/06/17 02:33:12;;;;;;;22.85;20.35;;;16.10;99.90;;;;;;4954696;28;20420;-75
2023/06/17 02:35:38;;;;;;;26.17;21.05;;;16.10;99.90;;;;;;4965742;28;20436;-75
2023/06/17 02:38:03;;;;;;;23.95;21.38;;;16.10;99.90;;;;;;4966171;28;20434;-76
2023/06/17 02:40:29;;;;;;;26.02;21.10;;;16.20;99.90;;;;;;4964394;28;20516;-75
2023/06/17 02:42:55;;;;;;;26.52;20.85;;;16.20;99.90;;;;;;4967388;28;20523;-75
2023/06/17 02:45:21;;;;;;;23.47;20.93;;;16.20;99.90;;;;;;4964183;28;20433;-75
2023/06/17 02:47:47;;;;;;;24.23;19.40;;;16.10;99.90;;;;;;4966456;28;20417;-78
2023/06/17 02:50:12;;;;;;;25.77;21.42;;;16.20;99.90;;;;;;4965037;28;20527;-75
2023/06/17 02:52:38;;;;;;;27.87;22.10;;;16.20;99.90;;;;;;4964742;28;20424;-75
2023/06/17 02:55:05;;;;;;;29.10;20.90;;;16.20;99.90;;;;;;4964644;28;20511;-74
2023/06/17 02:57:31;;;;;;;25.55;20.52;;;16.20;99.90;;;;;;4965895;28;20493;-75
2023/06/17 02:59:57;;;;;;;27.40;21.85;;;16.30;99.90;;;;;;4965222;28;20428;-75
2023/06/17 03:02:22;;;;;;;27.92;20.88;;;16.30;99.90;;;;;;4963408;28;20448;-74
2023/06/17 03:04:48;;;;;;;22.57;19.27;;;16.30;99.90;;;;;;4965050;28;20823;-75
2023/06/17 03:07:15;;;;;;;25.57;22.07;;;16.30;99.90;;;;;;4963665;28;20430;-74
2023/06/17 03:09:41;;;;;;;24.47;21.13;;;16.30;99.90;;;;;;4960285;28;20442;-75
2023/06/17 03:12:07;;;;;;;28.67;20.97;;;16.30;99.90;;;;;;4962927;28;20432;-74
2023/06/17 03:14:33;;;;;;;25.07;20.57;;;16.30;99.90;;;;;;4965702;28;20424;-74
2023/06/17 03:16:59;;;;;;;23.67;20.33;;;16.30;99.90;;;;;;4963058;28;20445;-75
2023/06/17 03:19:25;;;;;;;21.70;19.60;;;16.30;99.90;;;;;;4964897;28;20413;-77
2023/06/17 03:21:51;;;;;;;23.15;19.38;;;16.30;99.90;;;;;;4963827;28;20921;-74
2023/06/17 03:24:17;;;;;;;22.15;19.45;;;16.20;99.90;;;;;;4961256;28;20435;-76
2023/06/17 03:26:44;;;;;;;30.90;22.90;;;16.20;99.90;;;;;;4966063;28;20439;-75
2023/06/17 03:29:10;;;;;;;24.90;20.43;;;16.30;99.90;;;;;;4965759;28;20435;-74
2023/06/17 03:31:36;;;;;;;24.27;21.67;;;16.20;99.90;;;;;;4964628;28;21027;-79
2023/06/17 03:34:02;;;;;;;24.63;22.05;;;16.20;99.90;;;;;;4965209;28;20424;-75
2023/06/17 03:36:29;;;;;;;25.33;21.17;;;16.10;99.90;;;;;;4959980;28;20793;-74
2023/06/17 03:38:58;;;;;;;27.52;20.95;;;16.10;99.90;;;;;;4948600;28;20438;-76
2023/06/17 03:41:24;;;;;;;24.80;20.57;;;16.00;99.90;;;;;;4954628;28;20898;-76
2023/06/17 03:43:50;;;;;;;25.58;20.83;;;15.80;99.90;;;;;;4966363;28;20440;-76
2023/06/17 03:46:16;;;;;;;21.63;19.30;;;15.90;99.90;;;;;;4965749;28;20422;-78
2023/06/17 03:48:42;;;;;;;23.30;20.83;;;16.00;99.90;;;;;;4965756;28;20545;-74
2023/06/17 03:51:08;;;;;;;24.83;21.75;;;16.10;99.90;;;;;;4966913;28;20515;-76
2023/06/17 03:53:33;;;;;;;24.55;20.60;;;16.10;99.90;;;;;;4963839;28;20428;-76
2023/06/17 03:55:59;;;;;;;25.50;22.05;;;16.10;99.90;;;;;;4965170;28;20833;-75
2023/06/17 03:58:25;;;;;;;26.40;22.05;;;16.10;99.90;;;;;;4963014;28;20436;-75
2023/06/17 04:00:51;;;;;;;25.15;21.98;;;16.10;99.90;;;;;;4964402;28;20424;-76
2023/06/17 04:03:24;;;;;;;27.83;22.75;;;16.20;99.90;;;;;;4964210;28;20424;-73
2023/06/17 04:05:51;;;;;;;26.98;22.92;;;16.20;99.90;;;;;;4963301;28;20870;-76
2023/06/17 04:08:18;;;;;;;24.92;21.63;;;16.20;99.90;;;;;;4963092;28;20428;-77
2023/06/17 04:10:44;;;;;;;26.23;21.90;;;16.20;99.90;;;;;;4963760;28;20850;-77
2023/06/17 04:13:10;;;;;;;23.20;20.75;;;16.20;99.90;;;;;;4964932;28;20482;-76
2023/06/17 04:15:36;;;;;;;25.83;22.30;;;16.10;99.90;;;;;;4964353;28;20510;-74
2023/06/17 04:18:02;;;;;;;24.10;20.80;;;16.10;99.90;;;;;;4964302;28;20770;-75
2023/06/17 04:20:28;;;;;;;23.27;20.77;;;16.10;99.90;;;;;;4963955;28;20428;-76
2023/06/17 04:22:54;;;;;;;25.60;19.65;;;16.20;99.90;;;;;;4965188;28;20434;-76
2023/06/17 04:25:20;;;;;;;24.90;20.53;;;16.10;99.90;;;;;;4964590;28;20524;-75
2023/06/17 04:27:53;;;;;;;21.83;19.40;;;16.10;99.90;;;;;;4964208;28;20508;-77
2023/06/17 04:30:19;;;;;;;22.30;19.98;;;16.10;99.90;;;;;;4963254;28;20510;-75
2023/06/17 04:32:45;;;;;;;22.55;20.15;;;16.10;99.90;;;;;;4963774;28;20991;-75
2023/06/17 04:35:11;;;;;;;22.92;20.52;;;16.10;99.90;;;;;;4963277;28;20435;-74
2023/06/17 04:37:40;;;;;;;26.80;20.90;;;16.20;99.90;;;;;;4963654;28;20790;-75
2023/06/17 04:40:10;;;;;;;23.27;20.98;;;16.20;99.90;;;;;;4964746;28;20423;-76
2023/06/17 04:42:36;;;;;;;26.40;22.33;;;16.30;99.90;;;;;;4963113;28;20799;-76
2023/06/17 04:45:02;;;;;;;25.00;22.17;;;16.20;99.90;;;;;;4964186;28;20420;-76
2023/06/17 04:47:28;;;;;;;25.40;22.52;;;16.30;99.90;;;;;;4963197;28;20413;-78
2023/06/17 04:49:55;;;;;;;25.08;22.27;;;16.10;99.90;;;;;;4946608;28;21164;-75
2023/06/17 04:52:24;;;;;;;27.20;22.77;;;16.00;99.90;;;;;;4949243;28;20436;-75
2023/06/17 04:54:51;;;;;;;31.30;24.77;;;16.20;99.90;;;;;;4961941;28;20458;-75
2023/06/17 04:57:17;;;;;;;27.38;23.98;;;16.20;99.90;;;;;;4960906;28;20436;-77
2023/06/17 04:59:43;;;;;;;25.60;23.02;;;16.30;99.90;;;;;;4962519;28;20470;-75
2023/06/17 05:02:08;;;;;;;22.10;19.87;;;16.20;99.90;;;;;;4961449;28;20479;-74
2023/06/17 05:04:34;;;;;;;25.37;21.13;;;16.30;99.90;;;;;;4962880;28;20428;-77
2023/06/17 05:07:00;;;;;;;24.83;19.75;;;16.30;99.90;;;;;;4965095;28;20519;-76
2023/06/17 05:09:25;;;;;;;22.17;19.80;;;16.40;99.90;;;;;;4960736;28;20523;-75
2023/06/17 05:11:51;;;;;;;23.97;21.00;;;16.30;99.90;;;;;;4964128;28;20432;-76
2023/06/17 05:14:17;;;;;;;23.80;17.30;;;16.40;99.90;;;;;;4962585;28;20428;-77
2023/06/17 05:16:42;;;;;;;22.83;16.92;;;16.40;99.90;;;;;;4964099;28;20440;-74
2023/06/17 05:19:08;;;;;;;21.70;17.10;;;16.40;99.90;;;;;;4953737;28;20434;-74
2023/06/17 05:21:33;;;;;;;20.23;15.87;;;16.40;99.90;;;;;;4963121;28;20542;-75
2023/06/17 05:23:59;;;;;;;18.50;16.55;;;16.40;99.90;;;;;;4963755;28;20759;-75
2023/06/17 05:26:25;;;;;;;19.55;16.73;;;16.50;99.90;;;;;;4964692;28;20902;-76
2023/06/17 05:28:51;;;;;;;21.37;17.73;;;16.40;99.90;;;;;;4953799;28;20935;-77
2023/06/17 05:31:16;;;;;;;18.60;16.53;;;16.30;99.90;;;;;;4963183;28;20523;-77
2023/06/17 05:33:42;;;;;;;21.35;16.40;;;16.40;99.90;;;;;;4962738;28;20428;-75
2023/06/17 05:36:08;;;;;;;28.33;16.65;;;16.40;99.90;;;;;;4964354;28;20428;-74
2023/06/17 05:38:33;;;;;;;18.27;16.23;;;16.40;99.90;;;;;;4963770;28;20458;-74
2023/06/17 05:40:59;;;;;;;20.60;16.60;;;16.50;99.90;;;;;;4961439;28;20503;-75
2023/06/17 05:43:28;;;;;;;22.80;17.80;;;16.50;99.90;;;;;;4960782;28;20513;-75
2023/06/17 05:45:54;;;;;;;21.92;16.73;;;16.50;99.90;;;;;;4963327;28;20420;-74
2023/06/17 05:48:20;;;;;;;21.47;16.47;;;16.50;99.90;;;;;;4960075;28;20776;-75
2023/06/17 05:50:46;;;;;;;20.17;15.80;;;16.40;99.90;;;;;;4961683;28;20424;-77
2023/06/17 05:53:11;;;;;;;23.63;17.02;;;16.50;99.90;;;;;;4963809;28;20495;-76
2023/06/17 05:55:37;;;;;;;20.35;15.32;;;16.50;99.90;;;;;;4959766;28;20447;-75
2023/06/17 05:58:03;;;;;;;20.23;16.20;;;16.60;99.90;;;;;;4962015;28;20464;-76
2023/06/17 06:00:28;;;;;;;18.50;15.23;;;16.60;99.90;;;;;;4961144;28;20914;-75
2023/06/17 06:02:54;;;;;;;20.07;16.03;;;16.60;99.90;;;;;;4963003;28;20424;-77
2023/06/17 06:05:20;;;;;;;18.90;15.00;;;16.80;99.90;;;;;;4961332;28;20443;-75
2023/06/17 06:07:46;;;;;;;21.30;15.32;;;16.90;99.90;;;;;;4965072;28;20424;-75
2023/06/17 06:10:12;;;;;;;19.00;14.73;;;16.80;99.90;;;;;;4961089;28;20432;-75
2023/06/17 06:12:38;;;;;;;19.60;14.32;;;16.80;99.90;;;;;;4964341;28;20831;-75
2023/06/17 06:15:05;;;;;;;16.98;14.68;;;16.80;99.90;;;;;;4962094;28;20478;-76
2023/06/17 06:17:30;;;;;;;18.27;15.07;;;16.80;99.90;;;;;;4965054;28;20444;-74
2023/06/17 06:19:56;;;;;;;18.10;15.93;;;16.90;99.90;;;;;;4961066;28;20425;-75
2023/06/17 06:22:22;;;;;;;20.50;14.98;;;16.90;99.90;;;;;;4965683;28;20438;-75
2023/06/17 06:24:48;;;;;;;16.60;13.83;;;17.00;99.90;;;;;;4962695;28;20425;-76
2023/06/17 06:27:14;;;;;;;21.50;15.90;;;17.20;99.90;;;;;;4978003;28;20439;-76
2023/06/17 06:29:39;;;;;;;16.70;14.88;;;17.20;99.90;;;;;;4966206;28;20456;-75
2023/06/17 06:32:06;;;;;;;21.00;14.18;;;17.20;99.90;;;;;;4966962;28;20511;-74
2023/06/17 06:34:31;;;;;;;20.48;15.40;;;17.20;99.90;;;;;;4961870;28;20432;-75
2023/06/17 06:36:58;;;;;;;17.60;14.80;;;17.20;99.90;;;;;;4964681;28;20540;-76
2023/06/17 06:39:26;;;;;;;19.48;15.02;;;17.20;99.90;;;;;;4964036;28;20505;-75
2023/06/17 06:41:52;;;;;;;18.27;16.10;;;17.30;99.90;;;;;;4967830;28;20499;-76
2023/06/17 06:44:18;;;;;;;20.10;15.23;;;17.30;99.90;;;;;;4943654;28;20527;-76
2023/06/17 06:46:44;;;;;;;21.42;16.38;;;17.20;99.90;;;;;;4966239;28;20432;-75
2023/06/17 06:49:10;;;;;;;22.30;17.50;;;17.40;99.90;;;;;;4968171;28;20419;-74
2023/06/17 06:51:36;;;;;;;20.98;16.98;;;17.30;99.90;;;;;;4966555;28;20505;-75
2023/06/17 06:54:02;;;;;;;28.17;19.40;;;17.20;99.90;;;;;;4968749;28;20420;-76
2023/06/17 06:56:28;;;;;;;21.23;17.48;;;17.40;99.90;;;;;;4963315;28;20903;-75
2023/06/17 06:58:57;;;;;;;24.10;19.23;;;17.40;99.90;;;;;;4966991;28;20435;-77
2023/06/17 07:01:24;;;;;;;21.50;16.80;;;17.60;99.90;;;;;;4960588;28;20940;-76
2023/06/17 07:03:50;;;;;;;20.48;16.83;;;17.70;99.90;;;;;;4967181;28;20429;-76
2023/06/17 07:06:16;;;;;;;18.48;16.17;;;17.70;99.90;;;;;;4965897;28;20936;-76
2023/06/17 07:08:41;;;;;;;18.33;16.00;;;17.60;99.90;;;;;;4966277;28;20464;-75
2023/06/17 07:11:07;;;;;;;18.40;14.47;;;17.70;99.90;;;;;;4966639;28;20424;-77
2023/06/17 07:13:33;;;;;;;21.52;16.05;;;17.70;99.90;;;;;;4961243;28;20800;-76
2023/06/17 07:15:58;;;;;;;20.63;14.17;;;17.90;99.90;;;;;;4953473;28;20886;-77
2023/06/17 07:18:24;;;;;;;18.37;15.23;;;17.90;99.90;;;;;;4965082;28;20435;-74
2023/06/17 07:20:50;;;;;;;17.02;13.55;;;17.90;99.90;;;;;;4966833;28;20404;-77
2023/06/17 07:23:15;;;;;;;17.63;13.15;;;17.90;99.90;;;;;;4965017;28;20479;-75
2023/06/17 07:25:41;;;;;;;17.67;13.63;;;18.00;99.90;;;;;;4966182;28;20444;-77
2023/06/17 07:28:07;;;;;;;15.53;12.47;;;18.20;99.90;;;;;;4966218;28;20440;-76
2023/06/17 07:30:33;;;;;;;15.05;13.45;;;18.10;99.90;;;;;;4966059;28;20440;-75
2023/06/17 07:32:59;;;;;;;18.47;13.50;;;18.20;99.90;;;;;;4962855;28;20833;-75
2023/06/17 07:35:25;;;;;;;17.43;13.43;;;18.30;99.90;;;;;;4964172;28;20478;-76
2023/06/17 07:37:52;;;;;;;15.03;12.47;;;18.50;99.90;;;;;;4974832;28;20438;-76
2023/06/17 07:40:18;;;;;;;17.90;13.02;;;18.60;99.90;;;;;;4964951;28;20957;-76
2023/06/17 07:42:44;;;;;;;14.63;12.48;;;18.60;99.90;;;;;;4964356;28;20436;-76
2023/06/17 07:45:10;;;;;;;20.70;13.40;;;18.70;99.90;;;;;;4965143;28;20428;-76
2023/06/17 07:47:36;;;;;;;17.87;13.07;;;18.90;99.90;;;;;;4960940;28;20433;-75
2023/06/17 07:50:03;;;;;;;16.47;12.70;;;19.40;99.90;;;;;;4965437;28;20427;-74
2023/06/17 07:52:31;;;;;;;16.15;12.20;;;19.30;99.90;;;;;;4964299;28;20447;-74
2023/06/17 07:54:57;;;;;;;15.45;11.50;;;19.30;99.90;;;;;;4962915;28;20428;-75
2023/06/17 07:57:23;;;;;;;18.10;12.67;;;19.30;99.90;;;;;;4962619;28;20532;-75
2023/06/17 07:59:49;;;;;;;16.40;13.03;;;19.10;99.90;;;;;;4965678;28;20744;-75
2023/06/17 08:02:14;;;;;;;16.38;11.13;;;19.30;99.90;;;;;;4963404;28;20433;-75
2023/06/17 08:04:40;;;;;;;14.02;10.65;;;19.80;99.90;;;;;;4963113;28;20429;-75
2023/06/17 08:07:06;;;;;;;15.40;11.60;;;19.50;99.90;;;;;;4961931;28;20855;-75
2023/06/17 08:09:31;;;;;;;14.20;10.70;;;19.80;99.90;;;;;;4961400;28;20432;-77
2023/06/17 08:11:57;;;;;;;18.17;12.30;;;19.70;99.90;;;;;;4963893;28;20561;-74
2023/06/17 08:14:23;;;;;;;15.70;11.10;;;20.00;99.90;;;;;;4961816;28;20459;-75
2023/06/17 08:16:49;;;;;;;14.52;11.07;;;20.50;99.90;;;;;;4963443;28;20468;-74
2023/06/17 08:19:15;;;;;;;16.33;11.10;;;20.50;99.90;;;;;;4963034;28;20487;-75
2023/06/17 08:21:45;;;;;;;14.68;10.65;;;20.70;99.90;;;;;;4964961;28;20471;-76
2023/06/17 08:24:26;;;;;;;15.03;10.40;;;20.40;99.90;;;;;;4964333;28;20419;-77
2023/06/17 08:26:53;;;;;;;17.73;10.87;;;20.40;99.90;;;;;;4964765;28;20521;-75
2023/06/17 08:29:20;;;;;;;14.88;10.20;;;21.00;99.90;;;;;;4962970;28;21235;-77
2023/06/17 08:31:50;;;;;;;16.35;10.50;;;21.20;99.90;;;;;;4964796;28;20421;-76
2023/06/17 08:34:16;;;;;;;20.15;11.05;;;21.40;99.90;;;;;;4968114;28;20420;-74
2023/06/17 08:36:44;;;;;;;17.05;11.68;;;21.00;99.90;;;;;;4966003;28;20511;-75
2023/06/17 08:39:10;;;;;;;18.50;10.30;;;21.30;99.90;;;;;;4963060;28;20432;-75
2023/06/17 08:41:41;;;;;;;18.67;11.70;;;21.40;99.90;;;;;;4948173;28;20414;-75
2023/06/17 08:44:11;;;;;;;14.98;10.98;;;21.70;99.90;;;;;;4963714;28;20840;-75
2023/06/17 08:46:38;;;;;;;12.43;8.65;;;21.70;99.90;;;;;;4962426;28;20925;-73
2023/06/17 08:49:04;;;;;;;13.73;9.75;;;21.90;99.90;;;;;;4962881;28;20507;-73
2023/06/17 08:51:31;;;;;;;16.40;9.93;;;21.90;99.90;;;;;;4964863;28;20819;-74
2023/06/17 08:54:00;;;;;;;10.43;9.15;;;21.30;99.90;;;;;;4962552;28;20478;-74
2023/06/17 08:56:26;;;;;;;14.43;9.33;;;21.90;99.90;;;;;;4963961;28;20432;-75
2023/06/17 08:58:56;;;;;;;18.38;9.38;;;21.90;99.90;;;;;;4960604;28;21743;-74
2023/06/17 09:01:24;;;;;;;12.93;8.98;;;22.20;99.90;;;;;;4964251;28;20953;-74
2023/06/17 09:03:54;;;;;;;11.13;8.82;;;22.20;99.90;;;;;;4962479;28;20441;-74
2023/06/17 09:06:21;;;;;;;13.23;8.50;;;22.20;99.90;;;;;;4964133;28;20428;-73
2023/06/17 09:08:47;;;;;;;13.15;8.55;;;22.10;99.90;;;;;;4961769;28;20511;-76
2023/06/17 09:11:14;;;;;;;14.93;9.73;;;22.30;99.90;;;;;;4964820;28;20442;-73
2023/06/17 09:13:39;;;;;;;14.00;8.75;;;22.10;99.90;;;;;;4962193;28;20542;-74
2023/06/17 09:16:05;;;;;;;12.27;9.05;;;22.20;99.90;;;;;;4962583;28;20515;-74
2023/06/17 09:18:35;;;;;;;10.73;8.80;;;22.30;99.90;;;;;;4962276;28;20887;-73
2023/06/17 09:21:03;;;;;;;12.55;8.95;;;22.40;99.90;;;;;;4957611;28;20421;-74
2023/06/17 09:23:29;;;;;;;12.10;9.02;;;22.60;99.90;;;;;;4961048;28;20426;-74
2023/06/17 09:26:02;;;;;;;14.30;8.80;;;22.30;99.90;;;;;;4964472;28;20966;-75
2023/06/17 09:28:28;;;;;;;14.77;9.45;;;22.40;99.90;;;;;;4962351;28;20424;-74
2023/06/17 09:30:57;;;;;;;10.23;8.43;;;21.70;99.90;;;;;;4961640;28;20942;-73
2023/06/17 09:33:24;;;;;;;12.73;8.65;;;22.40;99.90;;;;;;4964390;28;20424;-73
2023/06/17 09:36:04;;;;;;;9.80;7.70;;;22.80;99.90;;;;;;4964460;28;20531;-74
2023/06/17 09:38:31;;;;;;;13.93;9.40;;;22.60;99.90;;;;;;4963368;28;20519;-73
2023/06/17 09:40:58;;;;;;;11.30;8.30;;;23.00;99.90;;;;;;4943971;28;20414;-73
2023/06/17 09:43:28;;;;;;;12.27;8.65;;;23.00;99.90;;;;;;4945648;28;20441;-73
2023/06/17 09:46:04;;;;;;;11.25;8.43;;;23.10;99.90;;;;;;4956564;28;20953;-72
2023/06/17 09:48:35;;;;;;;13.02;8.68;;;23.10;99.90;;;;;;4964462;28;20420;-74
2023/06/17 09:51:05;;;;;;;14.00;9.40;;;23.20;99.90;;;;;;4948989;28;21000;-75
2023/06/17 09:53:31;;;;;;;10.00;8.38;;;23.10;99.90;;;;;;4945239;28;20444;-74
2023/06/17 09:55:58;;;;;;;10.00;8.83;;;23.10;99.90;;;;;;4966812;28;20428;-75
2023/06/17 09:58:29;;;;;;;13.03;9.50;;;23.30;99.90;;;;;;4965682;28;20444;-74
2023/06/17 10:01:00;;;;;;;12.20;8.45;;;23.20;99.90;;;;;;4962824;28;20428;-75
2023/06/17 10:03:29;;;;;;;15.63;7.95;;;23.00;99.90;;;;;;4966427;28;20444;-75
2023/06/17 10:06:01;;;;;;;12.05;8.75;;;23.30;99.90;;;;;;4966863;28;20435;-75
2023/06/17 10:08:29;;;;;;;11.15;8.15;;;23.50;99.90;;;;;;4966175;28;20408;-74
2023/06/17 10:10:57;;;;;;;15.00;9.00;;;23.70;99.90;;;;;;4964720;28;20444;-74
2023/06/17 10:13:25;;;;;;;12.25;8.98;;;23.90;99.90;;;;;;4962868;28;20565;-74
2023/06/17 10:15:52;;;;;;;13.43;9.27;;;23.80;99.90;;;;;;4964121;28;20440;-74
2023/06/17 10:18:20;;;;;;;10.27;9.15;;;23.80;99.90;;;;;;4967353;28;20412;-75
2023/06/17 10:20:47;;;;;;;13.30;9.35;;;23.80;99.90;;;;;;4966454;28;20804;-74
2023/06/17 10:23:14;;;;;;;11.52;9.05;;;23.40;99.90;;;;;;4962996;28;20450;-75
2023/06/17 10:25:40;;;;;;;12.07;9.23;;;23.70;99.90;;;;;;4966315;28;20515;-75
2023/06/17 10:28:06;;;;;;;11.17;7.90;;;23.60;99.90;;;;;;4964902;28;20957;-75
2023/06/17 10:30:32;;;;;;;11.38;8.95;;;23.60;99.90;;;;;;4958129;28;20431;-74
2023/06/17 10:33:03;;;;;;;10.70;7.60;;;23.90;99.90;;;;;;4965832;28;20432;-74
2023/06/17 10:35:45;;;;;;;14.00;7.93;;;24.00;99.90;;;;;;4960137;28;20912;-74
2023/06/17 10:38:29;;;;;;;13.15;8.43;;;24.20;99.90;;;;;;4966876;28;21174;-74
2023/06/17 10:40:54;;;;;;;11.17;7.93;;;24.30;99.90;;;;;;4965081;28;20424;-75
2023/06/17 10:43:20;;;;;;;9.63;7.20;;;24.20;99.90;;;;;;4964924;28;20439;-74
2023/06/17 10:45:53;;;;;;;10.70;7.60;;;24.30;99.90;;;;;;4965217;28;20523;-76
2023/06/17 10:48:30;;;;;;;10.13;7.35;;;24.00;99.90;;;;;;4962188;28;20919;-74
2023/06/17 10:51:08;;;;;;;8.75;7.35;;;24.50;99.90;;;;;;4965210;28;20429;-71
2023/06/17 10:53:37;;;;;;;11.55;7.97;;;24.60;99.90;;;;;;4965983;28;20436;-72
2023/06/17 10:56:09;;;;;;;12.75;9.35;;;24.40;99.90;;;;;;4966360;28;20482;-73
2023/06/17 10:58:42;;;;;;;11.88;7.45;;;24.60;99.90;;;;;;4966964;28;20470;-72
2023/06/17 11:01:09;;;;;;;13.45;8.07;;;24.60;99.90;;;;;;4961999;28;20510;-71
2023/06/17 11:03:36;;;;;;;8.90;8.00;;;24.80;99.90;;;;;;4963501;28;20444;-72
2023/06/17 11:06:09;;;;;;;10.00;8.05;;;24.80;99.90;;;;;;4965889;28;20460;-73
2023/06/17 11:08:36;;;;;;;11.52;8.10;;;24.90;99.90;;;;;;4967124;28;20504;-72
2023/06/17 11:11:16;;;;;;;15.07;8.75;;;24.80;99.90;;;;;;4965165;28;20427;-74
2023/06/17 11:13:44;;;;;;;11.63;9.07;;;24.90;99.90;;;;;;4965283;28;20546;-72
2023/06/17 11:16:10;;;;;;;12.00;8.97;;;24.90;99.90;;;;;;4963222;28;20440;-73
2023/06/17 11:18:38;;;;;;;12.88;8.57;;;24.70;99.90;;;;;;4966591;28;20980;-75
2023/06/17 11:21:05;;;;;;;11.25;8.07;;;25.10;99.90;;;;;;4964714;28;20431;-73
2023/06/17 11:23:31;;;;;;;12.93;9.38;;;25.30;99.90;;;;;;4964844;28;21121;-73
2023/06/17 11:25:57;;;;;;;12.43;8.43;;;25.20;99.90;;;;;;4963980;28;20447;-71
2023/06/17 11:28:23;;;;;;;13.87;8.77;;;25.00;99.90;;;;;;4965670;28;20425;-74
2023/06/17 11:30:49;;;;;;;10.30;8.48;;;25.30;99.90;;;;;;4963491;28;20434;-71
2023/06/17 11:33:19;;;;;;;9.50;7.47;;;25.10;99.90;;;;;;4965135;28;20520;-72
2023/06/17 11:35:45;;;;;;;9.80;7.00;;;25.30;99.90;;;;;;4965094;28;20478;-73
2023/06/17 11:38:11;;;;;;;10.02;7.18;;;25.50;99.90;;;;;;4964650;28;20447;-73
2023/06/17 11:40:41;;;;;;;9.57;6.33;;;25.40;99.90;;;;;;4965044;28;21061;-72
2023/06/17 11:43:07;;;;;;;11.63;7.53;;;25.60;99.90;;;;;;4959995;28;20489;-74
2023/06/17 11:45:34;;;;;;;9.35;7.50;;;25.80;99.90;;;;;;4956949;28;20459;-73
2023/06/17 11:48:00;;;;;;;14.27;8.73;;;26.10;99.90;;;;;;4964993;28;20519;-74
2023/06/17 11:50:32;;;;;;;12.25;8.30;;;25.90;99.90;;;;;;4964951;28;20825;-72
2023/06/17 11:52:57;;;;;;;9.73;7.88;;;26.00;99.90;;;;;;4965628;28;20439;-74
2023/06/17 11:55:33;;;;;;;12.65;6.85;;;25.20;99.90;;;;;;4964050;28;20430;-74
2023/06/17 11:58:08;;;;;;;10.55;7.40;;;25.60;99.90;;;;;;4946732;28;20809;-73
2023/06/17 12:00:37;;;;;;;9.83;7.33;;;25.70;99.90;;;;;;4948961;28;20489;-73
2023/06/17 12:03:05;;;;;;;10.75;7.55;;;25.70;99.90;;;;;;4962830;28;20439;-76
2023/06/17 12:05:31;;;;;;;9.95;7.00;;;25.90;99.90;;;;;;4964020;28;20433;-73
2023/06/17 12:08:01;;;;;;;11.27;6.90;;;25.80;99.90;;;;;;4965124;28;20448;-73
2023/06/17 12:10:27;;;;;;;9.90;6.90;;;25.90;99.90;;;;;;4964802;28;20485;-73
2023/06/17 12:12:57;;;;;;;11.18;7.43;;;26.10;99.90;;;;;;4962399;28;20432;-73
2023/06/17 12:15:30;;;;;;;9.18;8.15;;;26.10;99.90;;;;;;4964103;28;20436;-72
2023/06/17 12:17:56;;;;;;;10.45;7.45;;;25.90;99.90;;;;;;4964795;28;20424;-72
2023/06/17 12:20:22;;;;;;;9.70;7.30;;;26.20;99.90;;;;;;4964909;28;20921;-72
2023/06/17 12:22:49;;;;;;;10.40;7.87;;;26.30;99.90;;;;;;4963484;28;20510;-73
2023/06/17 12:25:15;;;;;;;11.53;7.50;;;26.50;99.90;;;;;;4965570;28;20435;-72
2023/06/17 12:27:45;;;;;;;10.80;8.05;;;26.40;99.90;;;;;;4962306;28;20450;-76
2023/06/17 12:30:11;;;;;;;9.32;8.27;;;26.10;99.90;;;;;;4964213;28;20421;-78